Terminal Aerodrome Forecast
Issued by NWS Springfield, MO

Home | Current Version | Previous Version | Text Only | Print | Product List | Glossary On
Versions: 1 2 3 4 5 6 7 8 9 10 11 12 13 14 15 16 17 18 19 20 21 22 23 24 25
456
FTUS43 KSGF 261732
TAFSGF
TAF
KSGF 261732Z 2618/2718 16012KT 5SM -RA BR BKN025 OVC050
     FM262000 17009KT 6SM -RA SCT025 OVC050
      TEMPO 2620/2622 OVC025
     FM262200 14007KT P6SM SCT025 OVC060
     FM270200 14006KT P6SM SCT050
     FM270900 14006KT 4SM BR BKN015
     FM271500 14012KT P6SM BKN025=

USA.gov is the U.S. government's official web portal to all federal, state and local government web resources and services.